MTS Valour — MPVV8 — position and weather

sailwx.info

Track history (hours):
 
Tides and Currents Weather Stations Pressure Air Temp Water Temp Dewpoint Dewpoint Depression Visibility Wind Speed Wind Dir Waves Ship Positions

MTS Valour

Last reported at 2017-Jul-28 06:28 UTC. Time now 2017-Jul-28 06:52 UTC.
Position N 51°20' E 001°25'.

Length 24 m; draft 2.3 m.

Type: Tug. MMSI: 235040596.

Date/timePositionNaut miles runAvg speedWind from/ knotsBaromVisibWave heightAir tempDewpointWater temp
2017-Jul-28 06:28N 51°20' E 001°25'0 0.0
2017-Jul-28 05:58N 51°20' E 001°25'0 0.0
2017-Jul-28 05:28N 51°20' E 001°25'0 0.0
2017-Jul-28 04:58N 51°20' E 001°25'0 0.0
2017-Jul-28 04:28N 51°20' E 001°25'0 0.0
2017-Jul-28 03:58N 51°20' E 001°25'0 0.0
2017-Jul-28 03:28N 51°20' E 001°25'0 0.0
2017-Jul-28 02:58N 51°20' E 001°25'0 0.0
2017-Jul-28 02:28N 51°20' E 001°25'0 0.0
2017-Jul-28 01:58N 51°20' E 001°25'0 0.0
2017-Jul-28 01:28N 51°20' E 001°25'0 0.0
2017-Jul-28 00:58N 51°20' E 001°25'0 0.0
2017-Jul-28 00:28N 51°20' E 001°25'0 0.0
2017-Jul-27 23:58N 51°20' E 001°25'0 0.0
2017-Jul-27 23:28N 51°20' E 001°25'0 0.0
2017-Jul-27 23:01N 51°20' E 001°25'0 0.0
2017-Jul-27 22:31N 51°20' E 001°25'0 0.0
2017-Jul-27 21:58N 51°20' E 001°25'0 0.0
2017-Jul-27 21:28N 51°20' E 001°25'0 0.0
2017-Jul-27 20:58N 51°20' E 001°25'0 0.0
2017-Jul-27 20:28N 51°20' E 001°25'0 0.0
2017-Jul-27 19:58N 51°20' E 001°25'0 0.0
2017-Jul-27 19:28N 51°20' E 001°25'0 0.0
2017-Jul-27 18:58N 51°20' E 001°25'0 0.0
2017-Jul-27 18:28N 51°20' E 001°25'0 0.0
2017-Jul-27 18:01N 51°20' E 001°25'0 0.0
2017-Jul-27 17:28N 51°20' E 001°25'0 0.0
2017-Jul-27 16:58N 51°20' E 001°25'0 0.0
2017-Jul-27 16:28N 51°20' E 001°25'0 0.0
2017-Jul-27 15:58N 51°20' E 001°25'0 0.0
2017-Jul-27 15:28N 51°20' E 001°25'0 0.7
2017-Jul-27 14:58N 51°20' E 001°25'0 0.0
2017-Jul-27 13:58N 51°20' E 001°25'0 0.0
2017-Jul-27 13:28N 51°20' E 001°25'0 0.0
2017-Jul-27 12:58N 51°20' E 001°25'0 0.0
2017-Jul-27 12:28N 51°20' E 001°25'1 1.5
2017-Jul-27 12:00N 51°20' E 001°26'5 9.7
2017-Jul-27 11:30N 51°19' E 001°34'4 7.6
2017-Jul-27 11:00N 51°16' E 001°36'3 6.5
2017-Jul-27 10:30N 51°12' E 001°37'3 6.8
2017-Jul-27 10:00N 51°09' E 001°39'3 6.0
2017-Jul-27 09:30N 51°06' E 001°39'3 6.2
2017-Jul-27 09:00N 51°04' E 001°36'3 6.3
2017-Jul-27 08:30N 51°02' E 001°33'3 7.0
2017-Jul-27 08:00N 50°59' E 001°29'4 7.3
2017-Jul-27 07:30N 50°56' E 001°25'144 4.3
2017-Jul-25 22:01N 49°46' W 001°52'010.6
2017-Jul-25 21:59N 49°46' W 001°53'1510.9
2017-Jul-25 20:35N 49°34' W 002°07'110.8
2017-Jul-25 20:30N 49°33' W 002°08'1010.2
2017-Jul-25 19:32N 49°24' W 002°14'010.1
2017-Jul-25 19:30N 49°24' W 002°14'20 9.8
2017-Jul-25 17:29N 49°15' W 002°41'5 9.4
2017-Jul-25 17:00N 49°13' W 002°47'6 8.7
2017-Jul-25 16:17N 49°11' W 002°56'2 8.0
2017-Jul-25 16:00N 49°10' W 002°60'4 7.6
2017-Jul-25 15:30N 49°09' W 003°05'4 7.1
2017-Jul-25 14:56N 49°08' W 003°11'66 6.7
2017-Jul-25 05:06N 48°45' W 004°45'210.1
2017-Jul-25 04:54N 48°44' W 004°48'410.1
2017-Jul-25 04:30N 48°43' W 004°54'5 9.6
2017-Jul-25 04:00N 48°41' W 005°01'5 9.5
2017-Jul-25 03:30N 48°40' W 005°07'5 9.1
2017-Jul-25 03:00N 48°37' W 005°14'42 4.4
2017-Jul-24 17:25N 47°55' W 005°06'2 4.5
2017-Jul-24 16:55N 47°54' W 005°03'2 5.1
2017-Jul-24 16:30N 47°53' W 005°00'111 5.6
2017-Jul-23 20:28N 47°06' W 002°31'3 5.9
2017-Jul-23 20:00N 47°06' W 002°27'3 6.0
2017-Jul-23 19:30N 47°07' W 002°23'3 6.0
2017-Jul-23 19:00N 47°10' W 002°20'3 5.7
2017-Jul-23 18:30N 47°12' W 002°18'3 5.8
2017-Jul-23 18:00N 47°14' W 002°15'3 6.5
2017-Jul-23 17:30N 47°16' W 002°11'3 6.5
2017-Jul-23 17:01N 47°18' W 002°07'3 5.5
2017-Jul-23 16:31N 47°18' W 002°03'2 4.0
2017-Jul-23 16:00N 47°17' W 002°01'3 5.1
2017-Jul-23 15:30N 47°17' W 001°57'2 4.4
2017-Jul-23 15:00N 47°17' W 001°54'0 0.2
2017-Jul-23 14:30N 47°17' W 001°54'0 0.0
2017-Jul-23 14:00N 47°17' W 001°54'0 0.0
2017-Jul-23 13:30N 47°17' W 001°54'0 0.0
2017-Jul-23 13:00N 47°17' W 001°54'0 0.0
2017-Jul-23 12:30N 47°17' W 001°54'0 0.0
2017-Jul-23 12:01N 47°17' W 001°54'0 0.0
2017-Jul-23 11:30N 47°17' W 001°54'0 0.0
2017-Jul-23 11:01N 47°17' W 001°54'0 0.0
2017-Jul-23 10:31N 47°17' W 001°54'0 0.0
2017-Jul-23 10:00N 47°17' W 001°54'0 0.0
2017-Jul-23 09:30N 47°17' W 001°54'0 0.0
2017-Jul-23 09:00N 47°17' W 001°54'0 0.0
2017-Jul-23 08:30N 47°17' W 001°54'0 0.0
2017-Jul-23 08:01N 47°17' W 001°54'0 0.0
2017-Jul-23 07:31N 47°17' W 001°54'0 0.0
2017-Jul-23 07:00N 47°17' W 001°54'0 0.0
2017-Jul-23 06:31N 47°17' W 001°54'0 0.1
2017-Jul-23 06:00N 47°17' W 001°53'0 0.0
2017-Jul-23 05:30N 47°17' W 001°53'0 0.0
2017-Jul-23 05:00N 47°17' W 001°53'0 0.0
2017-Jul-23 04:30N 47°17' W 001°53'0 0.0
2017-Jul-23 04:01N 47°17' W 001°53'0 0.0
2017-Jul-23 03:30N 47°17' W 001°53'0 0.0
2017-Jul-23 03:01N 47°17' W 001°53'0 0.0
2017-Jul-23 02:31N 47°17' W 001°53'0 0.0
2017-Jul-23 02:00N 47°17' W 001°53'0 0.0
2017-Jul-23 01:30N 47°17' W 001°53'0 0.0
2017-Jul-23 01:00N 47°17' W 001°53'0 0.0
2017-Jul-23 00:30N 47°17' W 001°53'0 0.0
2017-Jul-23 00:01N 47°17' W 001°53'0 0.0
2017-Jul-22 23:30N 47°17' W 001°53'0 0.0
2017-Jul-22 23:00N 47°17' W 001°53'0 0.0
2017-Jul-22 22:30N 47°17' W 001°53'0 0.0
2017-Jul-22 22:00N 47°17' W 001°53'0 0.0
2017-Jul-22 21:30N 47°17' W 001°53'0 0.0
2017-Jul-22 21:01N 47°17' W 001°53'0 0.0
2017-Jul-22 20:30N 47°17' W 001°53'0 0.0
2017-Jul-22 20:00N 47°17' W 001°53'0 0.0
2017-Jul-22 19:30N 47°17' W 001°53'0 0.0
2017-Jul-22 19:00N 47°17' W 001°53'0 0.0
2017-Jul-22 18:30N 47°17' W 001°53'0 0.0
2017-Jul-22 18:00N 47°17' W 001°53'0 0.0
2017-Jul-22 17:30N 47°17' W 001°53'0 0.0
2017-Jul-22 17:00N 47°17' W 001°53'0 0.0
2017-Jul-22 16:30N 47°17' W 001°53'0 0.0
2017-Jul-22 16:01N 47°17' W 001°53'0 0.0
2017-Jul-22 15:30N 47°17' W 001°53'0 0.0
2017-Jul-22 15:01N 47°17' W 001°53'0 0.0
2017-Jul-22 14:00N 47°17' W 001°53'0 0.1
2017-Jul-22 13:30N 47°17' W 001°53'0 0.0
2017-Jul-22 13:00N 47°17' W 001°53'0 0.0
2017-Jul-22 12:31N 47°17' W 001°53'0 0.1
2017-Jul-22 12:01N 47°17' W 001°53'0 0.1
2017-Jul-22 11:30N 47°17' W 001°53'0 0.0
2017-Jul-22 11:00N 47°17' W 001°53'0 0.2
2017-Jul-22 10:31N 47°17' W 001°54'4 7.4
2017-Jul-22 10:01N 47°17' W 001°59'4 7.2
2017-Jul-22 09:30N 47°18' W 002°04'3 6.8
2017-Jul-22 09:00N 47°18' W 002°09'4 6.6
2017-Jul-22 08:26N 47°15' W 002°13'3 6.8
2017-Jul-22 08:00N 47°13' W 002°16'4 8.0
2017-Jul-22 07:30N 47°10' W 002°19'4 8.3
2017-Jul-22 06:59N 47°06' W 002°23'4 7.5
2017-Jul-22 06:30N 47°04' W 002°27'4 7.5
2017-Jul-22 05:59N 47°03' W 002°32'98 8.3
2017-Jul-21 18:10N 47°43' W 004°44'3 8.5
2017-Jul-21 17:45N 47°45' W 004°49'2 8.4
2017-Jul-21 17:31N 47°46' W 004°51'5 8.6
2017-Jul-21 16:55N 47°48' W 004°58'4 8.9
2017-Jul-21 16:30N 47°50' W 005°03'8 9.3
2017-Jul-21 15:38N 47°55' W 005°13'8 8.7
2017-Jul-21 14:43N 48°01' W 005°20'6 7.9
2017-Jul-21 13:58N 48°06' W 005°26'9 7.0
2017-Jul-21 12:43N 48°13' W 005°33'5 6.4
2017-Jul-21 11:58N 48°17' W 005°38'125 6.0
2017-Jul-20 15:05N 49°46' W 003°24'0 6.4
2017-Jul-20 15:00N 49°47' W 003°23'7 6.6
2017-Jul-20 13:54N 49°50' W 003°14'3 7.2
2017-Jul-20 13:30N 49°52' W 003°10'6 7.8
2017-Jul-20 12:44N 49°55' W 003°02'2 8.3
2017-Jul-20 12:30N 49°56' W 002°60'4 8.6
2017-Jul-20 12:00N 49°58' W 002°54'105 8.2
2017-Jul-19 23:12N 50°29' W 000°17'210.3
2017-Jul-19 23:00N 50°29' W 000°13'510.2
2017-Jul-19 22:29N 50°31' W 000°06'5 9.9
2017-Jul-19 22:01N 50°32' E 000°02'5 9.7
2017-Jul-19 21:30N 50°34' E 000°09'11 9.3
2017-Jul-19 20:19N 50°37' E 000°26'40 8.4
2017-Jul-19 15:30N 50°60' E 001°18'510.5
2017-Jul-19 15:00N 51°03' E 001°25'510.7
2017-Jul-19 14:30N 51°06' E 001°31'510.6
2017-Jul-19 14:00N 51°10' E 001°38'5 9.8
2017-Jul-19 13:30N 51°13' E 001°43'5 9.2
2017-Jul-19 13:01N 51°17' E 001°47'4 8.8
2017-Jul-19 12:31N 51°21' E 001°49'4 8.2
2017-Jul-19 12:00N 51°25' E 001°52'4 7.4
2017-Jul-19 11:30N 51°28' E 001°55'3 5.3
2017-Jul-19 10:58N 51°30' E 001°59'0 0.7
2017-Jul-19 10:30N 51°30' E 001°58'0 0.2
2017-Jul-19 10:00N 51°30' E 001°58'1 1.1
2017-Jul-19 09:30N 51°30' E 001°58'0 0.4
2017-Jul-19 09:00N 51°30' E 001°59'0 0.6
2017-Jul-19 08:30N 51°29' E 001°58'1 1.4
2017-Jul-19 08:00N 51°30' E 001°59'1 1.1
2017-Jul-19 07:30N 51°30' E 001°58'0 0.5
2017-Jul-19 07:00N 51°30' E 001°58'0 0.4
2017-Jul-19 06:31N 51°29' E 001°58'0 0.3
2017-Jul-19 06:01N 51°29' E 001°58'0 0.3
2017-Jul-19 05:30N 51°29' E 001°58'0 0.0
2017-Jul-19 04:59N 51°29' E 001°58'0 0.1
2017-Jul-19 04:30N 51°29' E 001°58'0 0.3
2017-Jul-19 04:01N 51°29' E 001°58'0 0.3
2017-Jul-19 03:31N 51°30' E 001°58'1 2.8
2017-Jul-19 03:01N 51°30' E 001°60'510.3
2017-Jul-19 02:30N 51°33' E 002°06'5 9.7
2017-Jul-19 02:00N 51°36' E 002°13'5 9.6
2017-Jul-19 01:30N 51°39' E 002°19'6 9.4
2017-Jul-19 00:51N 51°44' E 002°25'4 9.1
2017-Jul-19 00:28N 51°47' E 002°29'5 8.8
2017-Jul-18 23:57N 51°50' E 002°33'4 8.5
2017-Jul-18 23:30N 51°53' E 002°37'14 7.9
2017-Jul-18 21:41N 52°01' E 002°56'23 9.7
2017-Jul-18 19:20N 52°03' E 003°33'3 7.6
2017-Jul-18 19:00N 52°03' E 003°37'4 8.6
2017-Jul-18 18:30N 52°03' E 003°44'510.4
2017-Jul-18 18:00N 52°02' E 003°53'510.3
2017-Jul-18 17:30N 52°01' E 004°01'511.0
2017-Jul-18 17:00N 51°58' E 004°08'611.4
2017-Jul-18 16:30N 51°54' E 004°16'510.2
2017-Jul-18 16:00N 51°54' E 004°24'2 3.0
2017-Jul-18 15:30N 51°53' E 004°26'0 0.0
2017-Jul-18 15:00N 51°53' E 004°26'0 0.0
2017-Jul-18 13:59N 51°53' E 004°26'0 0.0
2017-Jul-18 13:30N 51°53' E 004°26'0 0.0
2017-Jul-18 13:00N 51°53' E 004°26'0 0.0
2017-Jul-18 12:30N 51°53' E 004°26'0 0.0
2017-Jul-18 12:00N 51°53' E 004°26'0 0.0
2017-Jul-18 11:30N 51°53' E 004°26'0 0.0
2017-Jul-18 11:00N 51°53' E 004°26'0 0.0
2017-Jul-18 10:30N 51°53' E 004°26'0 0.0
2017-Jul-18 10:00N 51°53' E 004°26'0 0.0
2017-Jul-18 09:30N 51°53' E 004°26'0 0.0
2017-Jul-18 09:00N 51°53' E 004°26'0 0.0
2017-Jul-18 08:30N 51°53' E 004°26'0 0.0
2017-Jul-18 08:00N 51°53' E 004°26'0 0.0
2017-Jul-18 07:30N 51°53' E 004°26'0 0.0
2017-Jul-18 07:00N 51°53' E 004°26'0 0.0
2017-Jul-18 06:30N 51°53' E 004°26'  
Track history (hours):
 
Tides and Currents Weather Stations Pressure Air Temp Water Temp Dewpoint Dewpoint Depression Visibility Wind Speed Wind Dir Waves Ship Positions

MTS Valour

Last reported at 2017-Jul-28 06:28 UTC. Time now 2017-Jul-28 06:52 UTC.
Position N 51°20' E 001°25'.

Length 24 m; draft 2.3 m.

Type: Tug. MMSI: 235040596.

Date/timePositionNaut miles runAvg speedWind from/ knotsBaromVisibWave heightAir tempDewpointWater temp
2017-Jul-28 06:28N 51°20' E 001°25'0 0.0
2017-Jul-28 05:58N 51°20' E 001°25'0 0.0
2017-Jul-28 05:28N 51°20' E 001°25'0 0.0
2017-Jul-28 04:58N 51°20' E 001°25'0 0.0
2017-Jul-28 04:28N 51°20' E 001°25'0 0.0
2017-Jul-28 03:58N 51°20' E 001°25'0 0.0
2017-Jul-28 03:28N 51°20' E 001°25'0 0.0
2017-Jul-28 02:58N 51°20' E 001°25'0 0.0
2017-Jul-28 02:28N 51°20' E 001°25'0 0.0
2017-Jul-28 01:58N 51°20' E 001°25'0 0.0
2017-Jul-28 01:28N 51°20' E 001°25'0 0.0
2017-Jul-28 00:58N 51°20' E 001°25'0 0.0
2017-Jul-28 00:28N 51°20' E 001°25'0 0.0
2017-Jul-27 23:58N 51°20' E 001°25'0 0.0
2017-Jul-27 23:28N 51°20' E 001°25'0 0.0
2017-Jul-27 23:01N 51°20' E 001°25'0 0.0
2017-Jul-27 22:31N 51°20' E 001°25'0 0.0
2017-Jul-27 21:58N 51°20' E 001°25'0 0.0
2017-Jul-27 21:28N 51°20' E 001°25'0 0.0
2017-Jul-27 20:58N 51°20' E 001°25'0 0.0
2017-Jul-27 20:28N 51°20' E 001°25'0 0.0
2017-Jul-27 19:58N 51°20' E 001°25'0 0.0
2017-Jul-27 19:28N 51°20' E 001°25'0 0.0
2017-Jul-27 18:58N 51°20' E 001°25'0 0.0
2017-Jul-27 18:28N 51°20' E 001°25'0 0.0
2017-Jul-27 18:01N 51°20' E 001°25'0 0.0
2017-Jul-27 17:28N 51°20' E 001°25'0 0.0
2017-Jul-27 16:58N 51°20' E 001°25'0 0.0
2017-Jul-27 16:28N 51°20' E 001°25'0 0.0
2017-Jul-27 15:58N 51°20' E 001°25'0 0.0
2017-Jul-27 15:28N 51°20' E 001°25'0 0.7
2017-Jul-27 14:58N 51°20' E 001°25'0 0.0
2017-Jul-27 13:58N 51°20' E 001°25'0 0.0
2017-Jul-27 13:28N 51°20' E 001°25'0 0.0
2017-Jul-27 12:58N 51°20' E 001°25'0 0.0
2017-Jul-27 12:28N 51°20' E 001°25'1 1.5
2017-Jul-27 12:00N 51°20' E 001°26'5 9.7
2017-Jul-27 11:30N 51°19' E 001°34'4 7.6
2017-Jul-27 11:00N 51°16' E 001°36'3 6.5
2017-Jul-27 10:30N 51°12' E 001°37'3 6.8
2017-Jul-27 10:00N 51°09' E 001°39'3 6.0
2017-Jul-27 09:30N 51°06' E 001°39'3 6.2
2017-Jul-27 09:00N 51°04' E 001°36'3 6.3
2017-Jul-27 08:30N 51°02' E 001°33'3 7.0
2017-Jul-27 08:00N 50°59' E 001°29'4 7.3
2017-Jul-27 07:30N 50°56' E 001°25'144 4.3
2017-Jul-25 22:01N 49°46' W 001°52'010.6
2017-Jul-25 21:59N 49°46' W 001°53'1510.9
2017-Jul-25 20:35N 49°34' W 002°07'110.8
2017-Jul-25 20:30N 49°33' W 002°08'1010.2
2017-Jul-25 19:32N 49°24' W 002°14'010.1
2017-Jul-25 19:30N 49°24' W 002°14'20 9.8
2017-Jul-25 17:29N 49°15' W 002°41'5 9.4
2017-Jul-25 17:00N 49°13' W 002°47'6 8.7
2017-Jul-25 16:17N 49°11' W 002°56'2 8.0
2017-Jul-25 16:00N 49°10' W 002°60'4 7.6
2017-Jul-25 15:30N 49°09' W 003°05'4 7.1
2017-Jul-25 14:56N 49°08' W 003°11'66 6.7
2017-Jul-25 05:06N 48°45' W 004°45'210.1
2017-Jul-25 04:54N 48°44' W 004°48'410.1
2017-Jul-25 04:30N 48°43' W 004°54'5 9.6
2017-Jul-25 04:00N 48°41' W 005°01'5 9.5
2017-Jul-25 03:30N 48°40' W 005°07'5 9.1
2017-Jul-25 03:00N 48°37' W 005°14'42 4.4
2017-Jul-24 17:25N 47°55' W 005°06'2 4.5
2017-Jul-24 16:55N 47°54' W 005°03'2 5.1
2017-Jul-24 16:30N 47°53' W 005°00'111 5.6
2017-Jul-23 20:28N 47°06' W 002°31'3 5.9
2017-Jul-23 20:00N 47°06' W 002°27'3 6.0
2017-Jul-23 19:30N 47°07' W 002°23'3 6.0
2017-Jul-23 19:00N 47°10' W 002°20'3 5.7
2017-Jul-23 18:30N 47°12' W 002°18'3 5.8
2017-Jul-23 18:00N 47°14' W 002°15'3 6.5
2017-Jul-23 17:30N 47°16' W 002°11'3 6.5
2017-Jul-23 17:01N 47°18' W 002°07'3 5.5
2017-Jul-23 16:31N 47°18' W 002°03'2 4.0
2017-Jul-23 16:00N 47°17' W 002°01'3 5.1
2017-Jul-23 15:30N 47°17' W 001°57'2 4.4
2017-Jul-23 15:00N 47°17' W 001°54'0 0.2
2017-Jul-23 14:30N 47°17' W 001°54'0 0.0
2017-Jul-23 14:00N 47°17' W 001°54'0 0.0
2017-Jul-23 13:30N 47°17' W 001°54'0 0.0
2017-Jul-23 13:00N 47°17' W 001°54'0 0.0
2017-Jul-23 12:30N 47°17' W 001°54'0 0.0
2017-Jul-23 12:01N 47°17' W 001°54'0 0.0
2017-Jul-23 11:30N 47°17' W 001°54'0 0.0
2017-Jul-23 11:01N 47°17' W 001°54'0 0.0
2017-Jul-23 10:31N 47°17' W 001°54'0 0.0
2017-Jul-23 10:00N 47°17' W 001°54'0 0.0
2017-Jul-23 09:30N 47°17' W 001°54'0 0.0
2017-Jul-23 09:00N 47°17' W 001°54'0 0.0
2017-Jul-23 08:30N 47°17' W 001°54'0 0.0
2017-Jul-23 08:01N 47°17' W 001°54'0 0.0
2017-Jul-23 07:31N 47°17' W 001°54'0 0.0
2017-Jul-23 07:00N 47°17' W 001°54'0 0.0
2017-Jul-23 06:31N 47°17' W 001°54'0 0.1
2017-Jul-23 06:00N 47°17' W 001°53'0 0.0
2017-Jul-23 05:30N 47°17' W 001°53'0 0.0
2017-Jul-23 05:00N 47°17' W 001°53'0 0.0
2017-Jul-23 04:30N 47°17' W 001°53'0 0.0
2017-Jul-23 04:01N 47°17' W 001°53'0 0.0
2017-Jul-23 03:30N 47°17' W 001°53'0 0.0
2017-Jul-23 03:01N 47°17' W 001°53'0 0.0
2017-Jul-23 02:31N 47°17' W 001°53'0 0.0
2017-Jul-23 02:00N 47°17' W 001°53'0 0.0
2017-Jul-23 01:30N 47°17' W 001°53'0 0.0
2017-Jul-23 01:00N 47°17' W 001°53'0 0.0
2017-Jul-23 00:30N 47°17' W 001°53'0 0.0
2017-Jul-23 00:01N 47°17' W 001°53'0 0.0
2017-Jul-22 23:30N 47°17' W 001°53'0 0.0
2017-Jul-22 23:00N 47°17' W 001°53'0 0.0
2017-Jul-22 22:30N 47°17' W 001°53'0 0.0
2017-Jul-22 22:00N 47°17' W 001°53'0 0.0
2017-Jul-22 21:30N 47°17' W 001°53'0 0.0
2017-Jul-22 21:01N 47°17' W 001°53'0 0.0
2017-Jul-22 20:30N 47°17' W 001°53'0 0.0
2017-Jul-22 20:00N 47°17' W 001°53'0 0.0
2017-Jul-22 19:30N 47°17' W 001°53'0 0.0
2017-Jul-22 19:00N 47°17' W 001°53'0 0.0
2017-Jul-22 18:30N 47°17' W 001°53'0 0.0
2017-Jul-22 18:00N 47°17' W 001°53'0 0.0
2017-Jul-22 17:30N 47°17' W 001°53'0 0.0
2017-Jul-22 17:00N 47°17' W 001°53'0 0.0
2017-Jul-22 16:30N 47°17' W 001°53'0 0.0
2017-Jul-22 16:01N 47°17' W 001°53'0 0.0
2017-Jul-22 15:30N 47°17' W 001°53'0 0.0
2017-Jul-22 15:01N 47°17' W 001°53'0 0.0
2017-Jul-22 14:00N 47°17' W 001°53'0 0.1
2017-Jul-22 13:30N 47°17' W 001°53'0 0.0
2017-Jul-22 13:00N 47°17' W 001°53'0 0.0
2017-Jul-22 12:31N 47°17' W 001°53'0 0.1
2017-Jul-22 12:01N 47°17' W 001°53'0 0.1
2017-Jul-22 11:30N 47°17' W 001°53'0 0.0
2017-Jul-22 11:00N 47°17' W 001°53'0 0.2
2017-Jul-22 10:31N 47°17' W 001°54'4 7.4
2017-Jul-22 10:01N 47°17' W 001°59'4 7.2
2017-Jul-22 09:30N 47°18' W 002°04'3 6.8
2017-Jul-22 09:00N 47°18' W 002°09'4 6.6
2017-Jul-22 08:26N 47°15' W 002°13'3 6.8
2017-Jul-22 08:00N 47°13' W 002°16'4 8.0
2017-Jul-22 07:30N 47°10' W 002°19'4 8.3
2017-Jul-22 06:59N 47°06' W 002°23'4 7.5
2017-Jul-22 06:30N 47°04' W 002°27'4 7.5
2017-Jul-22 05:59N 47°03' W 002°32'98 8.3
2017-Jul-21 18:10N 47°43' W 004°44'3 8.5
2017-Jul-21 17:45N 47°45' W 004°49'2 8.4
2017-Jul-21 17:31N 47°46' W 004°51'5 8.6
2017-Jul-21 16:55N 47°48' W 004°58'4 8.9
2017-Jul-21 16:30N 47°50' W 005°03'8 9.3
2017-Jul-21 15:38N 47°55' W 005°13'8 8.7
2017-Jul-21 14:43N 48°01' W 005°20'6 7.9
2017-Jul-21 13:58N 48°06' W 005°26'9 7.0
2017-Jul-21 12:43N 48°13' W 005°33'5 6.4
2017-Jul-21 11:58N 48°17' W 005°38'125 6.0
2017-Jul-20 15:05N 49°46' W 003°24'0 6.4
2017-Jul-20 15:00N 49°47' W 003°23'7 6.6
2017-Jul-20 13:54N 49°50' W 003°14'3 7.2
2017-Jul-20 13:30N 49°52' W 003°10'6 7.8
2017-Jul-20 12:44N 49°55' W 003°02'2 8.3
2017-Jul-20 12:30N 49°56' W 002°60'4 8.6
2017-Jul-20 12:00N 49°58' W 002°54'105 8.2
2017-Jul-19 23:12N 50°29' W 000°17'210.3
2017-Jul-19 23:00N 50°29' W 000°13'510.2
2017-Jul-19 22:29N 50°31' W 000°06'5 9.9
2017-Jul-19 22:01N 50°32' E 000°02'5 9.7
2017-Jul-19 21:30N 50°34' E 000°09'11 9.3
2017-Jul-19 20:19N 50°37' E 000°26'40 8.4
2017-Jul-19 15:30N 50°60' E 001°18'510.5
2017-Jul-19 15:00N 51°03' E 001°25'510.7
2017-Jul-19 14:30N 51°06' E 001°31'510.6
2017-Jul-19 14:00N 51°10' E 001°38'5 9.8
2017-Jul-19 13:30N 51°13' E 001°43'5 9.2
2017-Jul-19 13:01N 51°17' E 001°47'4 8.8
2017-Jul-19 12:31N 51°21' E 001°49'4 8.2
2017-Jul-19 12:00N 51°25' E 001°52'4 7.4
2017-Jul-19 11:30N 51°28' E 001°55'3 5.3
2017-Jul-19 10:58N 51°30' E 001°59'0 0.7
2017-Jul-19 10:30N 51°30' E 001°58'0 0.2
2017-Jul-19 10:00N 51°30' E 001°58'1 1.1
2017-Jul-19 09:30N 51°30' E 001°58'0 0.4
2017-Jul-19 09:00N 51°30' E 001°59'0 0.6
2017-Jul-19 08:30N 51°29' E 001°58'1 1.4
2017-Jul-19 08:00N 51°30' E 001°59'1 1.1
2017-Jul-19 07:30N 51°30' E 001°58'0 0.5
2017-Jul-19 07:00N 51°30' E 001°58'0 0.4
2017-Jul-19 06:31N 51°29' E 001°58'0 0.3
2017-Jul-19 06:01N 51°29' E 001°58'0 0.3
2017-Jul-19 05:30N 51°29' E 001°58'0 0.0
2017-Jul-19 04:59N 51°29' E 001°58'0 0.1
2017-Jul-19 04:30N 51°29' E 001°58'0 0.3
2017-Jul-19 04:01N 51°29' E 001°58'0 0.3
2017-Jul-19 03:31N 51°30' E 001°58'1 2.8
2017-Jul-19 03:01N 51°30' E 001°60'510.3
2017-Jul-19 02:30N 51°33' E 002°06'5 9.7
2017-Jul-19 02:00N 51°36' E 002°13'5 9.6
2017-Jul-19 01:30N 51°39' E 002°19'6 9.4
2017-Jul-19 00:51N 51°44' E 002°25'4 9.1
2017-Jul-19 00:28N 51°47' E 002°29'5 8.8
2017-Jul-18 23:57N 51°50' E 002°33'4 8.5
2017-Jul-18 23:30N 51°53' E 002°37'14 7.9
2017-Jul-18 21:41N 52°01' E 002°56'23 9.7
2017-Jul-18 19:20N 52°03' E 003°33'3 7.6
2017-Jul-18 19:00N 52°03' E 003°37'4 8.6
2017-Jul-18 18:30N 52°03' E 003°44'510.4
2017-Jul-18 18:00N 52°02' E 003°53'510.3
2017-Jul-18 17:30N 52°01' E 004°01'511.0
2017-Jul-18 17:00N 51°58' E 004°08'611.4
2017-Jul-18 16:30N 51°54' E 004°16'510.2
2017-Jul-18 16:00N 51°54' E 004°24'2 3.0
2017-Jul-18 15:30N 51°53' E 004°26'0 0.0
2017-Jul-18 15:00N 51°53' E 004°26'0 0.0
2017-Jul-18 13:59N 51°53' E 004°26'0 0.0
2017-Jul-18 13:30N 51°53' E 004°26'0 0.0
2017-Jul-18 13:00N 51°53' E 004°26'0 0.0
2017-Jul-18 12:30N 51°53' E 004°26'0 0.0
2017-Jul-18 12:00N 51°53' E 004°26'0 0.0
2017-Jul-18 11:30N 51°53' E 004°26'0 0.0
2017-Jul-18 11:00N 51°53' E 004°26'0 0.0
2017-Jul-18 10:30N 51°53' E 004°26'0 0.0
2017-Jul-18 10:00N 51°53' E 004°26'0 0.0
2017-Jul-18 09:30N 51°53' E 004°26'0 0.0
2017-Jul-18 09:00N 51°53' E 004°26'0 0.0
2017-Jul-18 08:30N 51°53' E 004°26'0 0.0
2017-Jul-18 08:00N 51°53' E 004°26'0 0.0
2017-Jul-18 07:30N 51°53' E 004°26'0 0.0
2017-Jul-18 07:00N 51°53' E 004°26'0 0.0
2017-Jul-18 06:30N 51°53' E 004°26'  

Dump ship's entire track history